Have a Safe July 4th! 

Flight Track Log - Related Links

Times and Time Zones

All times are in EDT time to prevent confusion due to time zone crossing. See the DLH2703 flight status page for this flight to view local times or setup timezone preferences in your user account.

Time Position Orientation Groundspeed Altitude Reporting Facility
EDT Latitude Longitude Course Direction KTS MPH feet Rate Location/Type
Mon 02:48:00 AM 53.3380 9.4654 220° Southwest  Level Estimated
Mon 02:48:36 AM 53.5769 9.5233 220° Southwest 14,400  Level FlightAware ADS-B
Mon 02:48:47 AM 53.5575 9.5052 209° Southwest 330 380 14,800 2,143 Climbing FlightAware ADS-B
Mon 02:49:18 AM 53.5101 9.4608 209° Southwest 347 399 15,900 1,524 Climbing FlightAware ADS-B
Mon 02:49:50 AM 53.4672 9.4200 210° Southwest 378 435 16,400 1,619 Climbing FlightAware ADS-B
Mon 02:50:21 AM 53.4238 9.3692 224° Southwest 373 429 17,600 2,096 Climbing FlightAware ADS-B
Mon 02:51:13 AM 53.3584 9.2613 224° Southwest 387 445 19,300 2,110 Climbing FlightAware ADS-B
Mon 02:51:52 AM 53.3052 9.1759 224° Southwest 391 450 20,800 2,083 Climbing FlightAware ADS-B
Mon 02:52:25 AM 53.2608 9.1051 224° Southwest 398 458 21,800 1,826 Climbing FlightAware ADS-B
Mon 02:53:01 AM 53.2197 9.0392 220° Southwest 406 467 22,900 1,585 Climbing FlightAware ADS-B
Mon 02:53:18 AM 53.1874 9.0012 207° Southwest 415 478 23,200 947 Climbing FlightAware ADS-B
Mon 02:53:58 AM 53.1158 8.9475 204° Southwest 424 488 23,800 667 Climbing FlightAware ADS-B
Mon 02:54:30 AM 53.0624 8.9080 204° Southwest 415 478 24,000 136 Climbing FlightAware ADS-B
Mon 02:55:26 AM 52.9627 8.8343 204° Southwest 416 479 24,000  Level FlightAware ADS-B
Mon 02:56:08 AM 52.8868 8.7778 204° Southwest 418 481 24,000  Level FlightAware ADS-B
Mon 02:56:50 AM 52.8133 8.7242 204° Southwest 420 483 24,000  Level FlightAware ADS-B
Mon 02:57:34 AM 52.7357 8.6675 204° Southwest 421 484 24,000  Level FlightAware ADS-B
Mon 02:58:04 AM 52.6815 8.6284 204° Southwest 420 483 24,000  Level FlightAware ADS-B
Mon 02:58:35 AM 52.6252 8.5875 204° Southwest 418 481 24,000  Level FlightAware ADS-B
Mon 02:59:05 AM 52.5725 8.5496 204° Southwest 420 483 24,000  Level FlightAware ADS-B
Mon 02:59:38 AM 52.5146 8.5079 204° Southwest 419 482 24,000  Level FlightAware ADS-B
Mon 03:00:12 AM 52.4552 8.4650 204° Southwest 418 481 24,000  Level FlightAware ADS-B
Mon 03:00:50 AM 52.3899 8.4187 204° Southwest 394 453 24,000  Level FlightAware ADS-B
Mon 03:01:45 AM 52.2999 8.3544 204° Southwest 391 450 24,000  Level FlightAware ADS-B
Mon 03:02:19 AM 52.2429 8.3137 204° Southwest 392 451 24,000  Level FlightAware ADS-B
Mon 03:02:46 AM 52.2048 8.2684 233° Southwest 352 405 24,000 -194 Level FlightAware ADS-B
Mon 03:03:21 AM 52.1771 8.1942 240° Southwest 346 398 23,800 -646 Descending FlightAware ADS-B
Mon 03:03:51 AM 52.1524 8.1259 240° Southwest 338 389 23,300 -978 Descending FlightAware ADS-B
Mon 03:04:53 AM 52.1027 7.9900 239° Southwest 334 384 22,300 -903 Descending FlightAware ADS-B
Mon 03:05:24 AM 52.0786 7.9233 240° Southwest 334 384 21,900 -871 Descending FlightAware ADS-B
Mon 03:05:55 AM 52.0529 7.8593 231° Southwest 339 390 21,400 -968 Descending FlightAware ADS-B
Mon 03:06:26 AM 52.0215 7.7966 231° Southwest 336 387 20,900 -984 Descending FlightAware ADS-B
Mon 03:06:56 AM 51.9933 7.7405 231° Southwest 331 381 20,400 -1,200 Descending FlightAware ADS-B
Mon 03:07:26 AM 51.9648 7.6835 231° Southwest 331 381 19,700 -1,500 Descending FlightAware ADS-B
Mon 03:08:04 AM 51.9277 7.6096 231° Southwest 328 377 18,700 -1,500 Descending FlightAware ADS-B
Mon 03:08:34 AM 51.9001 7.5546 231° Southwest 326 375 18,000 -1,452 Descending FlightAware ADS-B
Mon 03:09:06 AM 51.8690 7.4930 231° Southwest 319 367 17,200 -1,452 Descending FlightAware ADS-B
Mon 03:09:36 AM 51.8414 7.4382 231° Southwest 317 365 16,500 -1,672 Descending FlightAware ADS-B
Mon 03:10:07 AM 51.8132 7.3824 231° Southwest 314 361 15,500 -1,395 Descending FlightAware ADS-B
Mon 03:11:02 AM 51.7669 7.2914 231° Southwest 288 331 14,500 10,825 Descending FlightAware ADS-B
Mon 03:11:44 AM 51.7332 7.2250 231° Southwest 284 327 33,000 -1,013 Climbing FlightAware ADS-B
Mon 03:12:19 AM 51.6999 7.1600 231° Southwest 284 327 13,200 -17,000 Descending FlightAware ADS-B
Mon 03:12:56 AM 51.6713 7.1013 231° Southwest 283 326 12,600 -1,008 Descending FlightAware ADS-B (LRBS / BBU)
Mon 03:14:24 AM 51.6091 6.9691 233° Southwest 247 284 11,100 -1,098 Descending FlightAware ADS-B
Mon 03:15:29 AM 51.5480 6.9121 163° South 291 335 9,800 -1,235 Descending FlightAware ADS-B
Mon 03:15:32 AM 51.5411 6.9159 156° South 293 337 9,700 -1,263 Descending FlightAware ADS-B
Mon 03:15:48 AM 51.5247 6.9366 131° Southeast 287 330 9,400 -977 Descending FlightAware ADS-B
Mon 03:16:15 AM 51.5082 6.9766 122° Southeast 280 322 9,000 -1,149 Descending FlightAware ADS-B
Mon 03:16:35 AM 51.4929 7.0166 122° Southeast 278 320 8,500 -1,645 Descending FlightAware ADS-B
Mon 03:17:17 AM 51.4598 7.0837 157° South 263 303 7,300 -1,393 Descending FlightAware ADS-B
Mon 03:17:31 AM 51.4433 7.0903 173° South 243 280 7,200 -692 Descending FlightAware ADS-B
Mon 03:17:43 AM 51.4339 7.0869 205° Southwest 203 234 7,000 -1,714 Descending FlightAware ADS-B
Mon 03:17:52 AM 51.4289 7.0817 232° Southwest 187 215 6,600 -3,167 Descending FlightAware ADS-B
Mon 03:18:19 AM 51.4153 7.0475 240° Southwest 183 211 5,100 -2,192 Descending FlightAware ADS-B
Mon 03:19:36 AM 51.4153 7.0475 232° Southwest 158 182 2,800 -1,792 Descending FlightAware ADS-B
Mon 03:22:00 AM 51.2933 6.7754 234° Southwest  Level Estimated
Mon 03:23:00 AM 51.2895 6.7668 234° Southwest  Level Estimated
Mon 03:24:00 AM 51.2895 6.7668 North  Level Estimated
Mon 03:25:00 AM 51.2895 6.7668 North  Level Estimated
Mon 03:26:00 AM 51.2895 6.7668 North  Level Estimated
Mon 03:27:00 AM 51.2895 6.7668 North  Level Estimated
Mon 03:28:00 AM 51.2895 6.7668 North  Level Estimated

Login

Don't have an account? Register now (free) for customized features, flight alerts, and more!